sensor_id;sensor_type;location;lat;lon;timestamp;temperature;humidity
25963;DHT22;13760;52.588;13.406;2023-06-14T00:00:31;14.90;99.90
25963;DHT22;13760;52.588;13.406;2023-06-14T00:02:56;14.80;99.90
25963;DHT22;13760;52.588;13.406;2023-06-14T00:05:23;14.80;99.90
25963;DHT22;13760;52.588;13.406;2023-06-14T00:07:49;14.80;99.90
25963;DHT22;13760;52.588;13.406;2023-06-14T00:10:18;14.80;99.90
25963;DHT22;13760;52.588;13.406;2023-06-14T00:12:44;14.80;99.90
25963;DHT22;13760;52.588;13.406;2023-06-14T00:15:10;14.80;99.90
25963;DHT22;13760;52.588;13.406;2023-06-14T00:17:36;14.80;99.90
25963;DHT22;13760;52.588;13.406;2023-06-14T00:20:03;14.80;99.90
25963;DHT22;13760;52.588;13.406;2023-06-14T00:22:31;14.80;99.90
25963;DHT22;13760;52.588;13.406;2023-06-14T00:24:58;14.80;99.90
25963;DHT22;13760;52.588;13.406;2023-06-14T00:27:23;14.80;99.90
25963;DHT22;13760;52.588;13.406;2023-06-14T00:29:50;14.80;99.90
25963;DHT22;13760;52.588;13.406;2023-06-14T00:32:15;14.70;99.90
25963;DHT22;13760;52.588;13.406;2023-06-14T00:34:41;14.70;99.90
25963;DHT22;13760;52.588;13.406;2023-06-14T00:37:06;14.70;99.90
25963;DHT22;13760;52.588;13.406;2023-06-14T00:39:32;14.70;99.90
25963;DHT22;13760;52.588;13.406;2023-06-14T00:41:57;14.70;99.90
25963;DHT22;13760;52.588;13.406;2023-06-14T00:44:24;14.70;99.90
25963;DHT22;13760;52.588;13.406;2023-06-14T00:46:50;14.70;99.90
25963;DHT22;13760;52.588;13.406;2023-06-14T00:49:16;14.60;99.90
25963;DHT22;13760;52.588;13.406;2023-06-14T00:51:43;14.60;99.90
25963;DHT22;13760;52.588;13.406;2023-06-14T00:54:09;14.60;99.90
25963;DHT22;13760;52.588;13.406;2023-06-14T00:56:38;14.60;99.90
25963;DHT22;13760;52.588;13.406;2023-06-14T00:59:04;14.50;99.90
25963;DHT22;13760;52.588;13.406;2023-06-14T01:01:30;14.50;99.90
25963;DHT22;13760;52.588;13.406;2023-06-14T01:03:59;14.50;99.90
25963;DHT22;13760;52.588;13.406;2023-06-14T01:09:58;14.40;99.90
25963;DHT22;13760;52.588;13.406;2023-06-14T01:15:23;14.40;99.90
25963;DHT22;13760;52.588;13.406;2023-06-14T01:17:50;14.40;99.90
25963;DHT22;13760;52.588;13.406;2023-06-14T01:20:17;14.30;99.90
25963;DHT22;13760;52.588;13.406;2023-06-14T01:22:52;14.30;99.90
25963;DHT22;13760;52.588;13.406;2023-06-14T01:25:22;14.20;99.90
25963;DHT22;13760;52.588;13.406;2023-06-14T01:27:53;14.20;99.90
25963;DHT22;13760;52.588;13.406;2023-06-14T01:30:21;14.10;99.90
25963;DHT22;13760;52.588;13.406;2023-06-14T01:32:48;14.10;99.90
25963;DHT22;13760;52.588;13.406;2023-06-14T01:35:16;14.00;99.90
25963;DHT22;13760;52.588;13.406;2023-06-14T01:37:42;14.00;99.90
25963;DHT22;13760;52.588;13.406;2023-06-14T01:40:09;13.90;99.90
25963;DHT22;13760;52.588;13.406;2023-06-14T01:42:37;13.90;99.90
25963;DHT22;13760;52.588;13.406;2023-06-14T01:45:07;13.90;99.90
25963;DHT22;13760;52.588;13.406;2023-06-14T01:47:37;13.80;99.90
25963;DHT22;13760;52.588;13.406;2023-06-14T01:50:03;13.70;99.90
25963;DHT22;13760;52.588;13.406;2023-06-14T01:52:29;13.70;99.90
25963;DHT22;13760;52.588;13.406;2023-06-14T01:54:55;13.60;99.90
25963;DHT22;13760;52.588;13.406;2023-06-14T01:57:21;13.60;99.90
25963;DHT22;13760;52.588;13.406;2023-06-14T01:59:47;13.50;99.90
25963;DHT22;13760;52.588;13.406;2023-06-14T02:02:14;13.50;99.90
25963;DHT22;13760;52.588;13.406;2023-06-14T02:04:40;13.50;99.90
25963;DHT22;13760;52.588;13.406;2023-06-14T02:07:09;13.50;99.90
25963;DHT22;13760;52.588;13.406;2023-06-14T02:09:34;13.50;99.90
25963;DHT22;13760;52.588;13.406;2023-06-14T02:12:01;13.50;99.90
25963;DHT22;13760;52.588;13.406;2023-06-14T02:14:26;13.50;99.90
25963;DHT22;13760;52.588;13.406;2023-06-14T02:16:52;13.40;99.90
25963;DHT22;13760;52.588;13.406;2023-06-14T02:19:19;13.40;99.90
25963;DHT22;13760;52.588;13.406;2023-06-14T02:21:45;13.30;99.90
25963;DHT22;13760;52.588;13.406;2023-06-14T02:24:11;13.30;99.90
25963;DHT22;13760;52.588;13.406;2023-06-14T02:26:38;13.20;99.90
25963;DHT22;13760;52.588;13.406;2023-06-14T02:29:07;13.20;99.90
25963;DHT22;13760;52.588;13.406;2023-06-14T02:31:38;13.20;99.90
25963;DHT22;13760;52.588;13.406;2023-06-14T02:34:04;13.20;99.90
25963;DHT22;13760;52.588;13.406;2023-06-14T02:36:29;13.20;99.90
25963;DHT22;13760;52.588;13.406;2023-06-14T02:38:56;13.20;99.90
25963;DHT22;13760;52.588;13.406;2023-06-14T02:41:23;13.20;99.90
25963;DHT22;13760;52.588;13.406;2023-06-14T02:43:49;13.20;99.90
25963;DHT22;13760;52.588;13.406;2023-06-14T02:46:15;13.10;99.90
25963;DHT22;13760;52.588;13.406;2023-06-14T02:48:41;13.10;99.90
25963;DHT22;13760;52.588;13.406;2023-06-14T02:51:07;13.10;99.90
25963;DHT22;13760;52.588;13.406;2023-06-14T02:53:34;13.10;99.90
25963;DHT22;13760;52.588;13.406;2023-06-14T02:55:59;13.10;99.90
25963;DHT22;13760;52.588;13.406;2023-06-14T02:58:25;13.00;99.90
25963;DHT22;13760;52.588;13.406;2023-06-14T03:00:51;13.00;99.90
25963;DHT22;13760;52.588;13.406;2023-06-14T03:03:18;13.00;99.90
25963;DHT22;13760;52.588;13.406;2023-06-14T03:05:45;13.00;99.90
25963;DHT22;13760;52.588;13.406;2023-06-14T03:08:13;12.90;99.90
25963;DHT22;13760;52.588;13.406;2023-06-14T03:10:48;12.90;99.90
25963;DHT22;13760;52.588;13.406;2023-06-14T03:13:15;12.90;99.90
25963;DHT22;13760;52.588;13.406;2023-06-14T03:15:41;12.90;99.90
25963;DHT22;13760;52.588;13.406;2023-06-14T03:18:08;12.90;99.90
25963;DHT22;13760;52.588;13.406;2023-06-14T03:20:37;12.80;99.90
25963;DHT22;13760;52.588;13.406;2023-06-14T03:23:03;12.90;99.90
25963;DHT22;13760;52.588;13.406;2023-06-14T03:25:30;12.90;99.90
25963;DHT22;13760;52.588;13.406;2023-06-14T03:27:56;12.90;99.90
25963;DHT22;13760;52.588;13.406;2023-06-14T03:30:22;12.90;99.90
25963;DHT22;13760;52.588;13.406;2023-06-14T03:32:47;12.80;99.90
25963;DHT22;13760;52.588;13.406;2023-06-14T03:35:13;12.80;99.90
25963;DHT22;13760;52.588;13.406;2023-06-14T03:37:43;12.80;99.90
25963;DHT22;13760;52.588;13.406;2023-06-14T03:40:10;12.80;99.90
25963;DHT22;13760;52.588;13.406;2023-06-14T03:42:36;12.80;99.90
25963;DHT22;13760;52.588;13.406;2023-06-14T03:45:02;12.80;99.90
25963;DHT22;13760;52.588;13.406;2023-06-14T03:47:27;12.90;99.90
25963;DHT22;13760;52.588;13.406;2023-06-14T03:49:53;12.90;99.90
25963;DHT22;13760;52.588;13.406;2023-06-14T03:52:19;13.00;99.90
25963;DHT22;13760;52.588;13.406;2023-06-14T03:54:44;13.00;99.90
25963;DHT22;13760;52.588;13.406;2023-06-14T03:57:10;13.00;99.90
25963;DHT22;13760;52.588;13.406;2023-06-14T03:59:36;13.10;99.90
25963;DHT22;13760;52.588;13.406;2023-06-14T04:02:02;13.20;99.90
25963;DHT22;13760;52.588;13.406;2023-06-14T04:04:27;13.20;99.90
25963;DHT22;13760;52.588;13.406;2023-06-14T04:06:55;13.20;99.90
25963;DHT22;13760;52.588;13.406;2023-06-14T04:09:26;13.20;99.90
25963;DHT22;13760;52.588;13.406;2023-06-14T04:11:54;13.30;99.90
25963;DHT22;13760;52.588;13.406;2023-06-14T04:14:21;13.30;99.90
25963;DHT22;13760;52.588;13.406;2023-06-14T04:16:47;13.30;99.90
25963;DHT22;13760;52.588;13.406;2023-06-14T04:19:13;13.40;99.90
25963;DHT22;13760;52.588;13.406;2023-06-14T04:21:39;13.50;99.90
25963;DHT22;13760;52.588;13.406;2023-06-14T04:24:05;13.60;99.90
25963;DHT22;13760;52.588;13.406;2023-06-14T04:26:32;13.50;99.90
25963;DHT22;13760;52.588;13.406;2023-06-14T04:29:12;13.50;99.90
25963;DHT22;13760;52.588;13.406;2023-06-14T04:31:47;13.50;99.90
25963;DHT22;13760;52.588;13.406;2023-06-14T04:34:13;13.50;99.90
25963;DHT22;13760;52.588;13.406;2023-06-14T04:36:41;13.60;99.90
25963;DHT22;13760;52.588;13.406;2023-06-14T04:39:17;13.70;99.90
25963;DHT22;13760;52.588;13.406;2023-06-14T04:41:43;13.70;99.90
25963;DHT22;13760;52.588;13.406;2023-06-14T04:44:09;13.70;99.90
25963;DHT22;13760;52.588;13.406;2023-06-14T04:46:35;13.80;99.90
25963;DHT22;13760;52.588;13.406;2023-06-14T04:49:09;13.90;99.90
25963;DHT22;13760;52.588;13.406;2023-06-14T04:51:35;14.00;99.90
25963;DHT22;13760;52.588;13.406;2023-06-14T04:54:02;14.00;99.90
25963;DHT22;13760;52.588;13.406;2023-06-14T04:56:28;14.00;99.90
25963;DHT22;13760;52.588;13.406;2023-06-14T04:58:54;14.10;99.90
25963;DHT22;13760;52.588;13.406;2023-06-14T05:01:21;14.20;99.90
25963;DHT22;13760;52.588;13.406;2023-06-14T05:03:48;14.30;99.90
25963;DHT22;13760;52.588;13.406;2023-06-14T05:06:15;14.30;99.90
25963;DHT22;13760;52.588;13.406;2023-06-14T05:08:41;14.40;99.90
25963;DHT22;13760;52.588;13.406;2023-06-14T05:11:06;14.40;99.90
25963;DHT22;13760;52.588;13.406;2023-06-14T05:13:32;14.30;99.90
25963;DHT22;13760;52.588;13.406;2023-06-14T05:15:58;14.40;99.90
25963;DHT22;13760;52.588;13.406;2023-06-14T05:18:24;14.50;99.90
25963;DHT22;13760;52.588;13.406;2023-06-14T05:20:50;14.50;99.90
25963;DHT22;13760;52.588;13.406;2023-06-14T05:23:16;14.50;99.90
25963;DHT22;13760;52.588;13.406;2023-06-14T05:25:45;14.50;99.90
25963;DHT22;13760;52.588;13.406;2023-06-14T05:28:11;14.50;99.90
25963;DHT22;13760;52.588;13.406;2023-06-14T05:30:38;14.50;99.90
25963;DHT22;13760;52.588;13.406;2023-06-14T05:33:04;14.60;99.90
25963;DHT22;13760;52.588;13.406;2023-06-14T05:35:29;14.60;99.90
25963;DHT22;13760;52.588;13.406;2023-06-14T05:37:55;14.70;99.90
25963;DHT22;13760;52.588;13.406;2023-06-14T05:40:20;14.70;99.90
25963;DHT22;13760;52.588;13.406;2023-06-14T05:42:46;14.80;99.90
25963;DHT22;13760;52.588;13.406;2023-06-14T05:45:11;14.80;99.90
25963;DHT22;13760;52.588;13.406;2023-06-14T05:47:37;14.80;99.90
25963;DHT22;13760;52.588;13.406;2023-06-14T05:50:03;14.80;99.90
25963;DHT22;13760;52.588;13.406;2023-06-14T05:52:28;14.90;99.90
25963;DHT22;13760;52.588;13.406;2023-06-14T05:54:55;14.90;99.90
25963;DHT22;13760;52.588;13.406;2023-06-14T05:57:20;14.90;99.90
25963;DHT22;13760;52.588;13.406;2023-06-14T05:59:46;15.00;99.90
25963;DHT22;13760;52.588;13.406;2023-06-14T06:02:11;15.00;99.90
25963;DHT22;13760;52.588;13.406;2023-06-14T06:04:37;15.10;99.90
25963;DHT22;13760;52.588;13.406;2023-06-14T06:07:03;15.10;99.90
25963;DHT22;13760;52.588;13.406;2023-06-14T06:09:29;15.10;99.90
25963;DHT22;13760;52.588;13.406;2023-06-14T06:11:54;15.20;99.90
25963;DHT22;13760;52.588;13.406;2023-06-14T06:14:20;15.30;99.90
25963;DHT22;13760;52.588;13.406;2023-06-14T06:16:46;15.30;99.90
25963;DHT22;13760;52.588;13.406;2023-06-14T06:19:11;15.30;99.90
25963;DHT22;13760;52.588;13.406;2023-06-14T06:21:37;15.30;99.90
25963;DHT22;13760;52.588;13.406;2023-06-14T06:24:04;15.30;99.90
25963;DHT22;13760;52.588;13.406;2023-06-14T06:26:31;15.30;99.90
25963;DHT22;13760;52.588;13.406;2023-06-14T06:28:57;15.30;99.90
25963;DHT22;13760;52.588;13.406;2023-06-14T06:31:23;15.40;99.90
25963;DHT22;13760;52.588;13.406;2023-06-14T06:33:49;15.40;99.90
25963;DHT22;13760;52.588;13.406;2023-06-14T06:36:14;15.40;99.90
25963;DHT22;13760;52.588;13.406;2023-06-14T06:38:40;15.50;99.90
25963;DHT22;13760;52.588;13.406;2023-06-14T06:41:06;15.60;99.90
25963;DHT22;13760;52.588;13.406;2023-06-14T06:43:31;15.60;99.90
25963;DHT22;13760;52.588;13.406;2023-06-14T06:45:57;15.70;99.90
25963;DHT22;13760;52.588;13.406;2023-06-14T06:48:22;15.70;99.90
25963;DHT22;13760;52.588;13.406;2023-06-14T06:50:48;15.80;99.90
25963;DHT22;13760;52.588;13.406;2023-06-14T06:53:13;15.80;99.90
25963;DHT22;13760;52.588;13.406;2023-06-14T06:55:39;15.90;99.90
25963;DHT22;13760;52.588;13.406;2023-06-14T06:58:04;16.00;99.90
25963;DHT22;13760;52.588;13.406;2023-06-14T07:00:30;16.10;99.90
25963;DHT22;13760;52.588;13.406;2023-06-14T07:02:56;16.20;99.90
25963;DHT22;13760;52.588;13.406;2023-06-14T07:05:23;16.30;99.90
25963;DHT22;13760;52.588;13.406;2023-06-14T07:07:48;16.30;99.90
25963;DHT22;13760;52.588;13.406;2023-06-14T07:10:14;16.40;99.90
25963;DHT22;13760;52.588;13.406;2023-06-14T07:12:39;16.50;99.90
25963;DHT22;13760;52.588;13.406;2023-06-14T07:15:08;16.50;99.90
25963;DHT22;13760;52.588;13.406;2023-06-14T07:17:34;16.50;99.90
25963;DHT22;13760;52.588;13.406;2023-06-14T07:20:02;16.50;99.90
25963;DHT22;13760;52.588;13.406;2023-06-14T07:22:40;16.50;99.90
25963;DHT22;13760;52.588;13.406;2023-06-14T07:25:08;16.50;99.90
25963;DHT22;13760;52.588;13.406;2023-06-14T07:27:34;16.60;99.90
25963;DHT22;13760;52.588;13.406;2023-06-14T07:29:59;16.70;99.90
25963;DHT22;13760;52.588;13.406;2023-06-14T07:32:25;16.80;99.90
25963;DHT22;13760;52.588;13.406;2023-06-14T07:34:50;16.80;99.90
25963;DHT22;13760;52.588;13.406;2023-06-14T07:37:16;16.80;99.90
25963;DHT22;13760;52.588;13.406;2023-06-14T07:39:41;16.90;99.90
25963;DHT22;13760;52.588;13.406;2023-06-14T07:42:07;17.00;99.90
25963;DHT22;13760;52.588;13.406;2023-06-14T07:44:32;17.20;99.90
25963;DHT22;13760;52.588;13.406;2023-06-14T07:46:58;17.40;99.90
25963;DHT22;13760;52.588;13.406;2023-06-14T07:49:25;17.60;99.90
25963;DHT22;13760;52.588;13.406;2023-06-14T07:51:50;17.80;99.90
25963;DHT22;13760;52.588;13.406;2023-06-14T07:54:16;17.90;99.90
25963;DHT22;13760;52.588;13.406;2023-06-14T07:56:42;18.10;99.90
25963;DHT22;13760;52.588;13.406;2023-06-14T07:59:08;18.00;99.90
25963;DHT22;13760;52.588;13.406;2023-06-14T08:01:34;18.20;99.90
25963;DHT22;13760;52.588;13.406;2023-06-14T08:04:00;18.30;99.90
25963;DHT22;13760;52.588;13.406;2023-06-14T08:06:26;18.50;99.90
25963;DHT22;13760;52.588;13.406;2023-06-14T08:08:51;18.60;99.90
25963;DHT22;13760;52.588;13.406;2023-06-14T08:11:17;18.70;99.90
25963;DHT22;13760;52.588;13.406;2023-06-14T08:13:43;18.60;99.90
25963;DHT22;13760;52.588;13.406;2023-06-14T08:16:08;18.50;99.90
25963;DHT22;13760;52.588;13.406;2023-06-14T08:18:34;18.70;99.90
25963;DHT22;13760;52.588;13.406;2023-06-14T08:20:59;18.90;99.90
25963;DHT22;13760;52.588;13.406;2023-06-14T08:23:25;19.10;99.90
25963;DHT22;13760;52.588;13.406;2023-06-14T08:25:51;19.30;99.90
25963;DHT22;13760;52.588;13.406;2023-06-14T08:28:16;19.40;99.90
25963;DHT22;13760;52.588;13.406;2023-06-14T08:30:42;19.60;99.90
25963;DHT22;13760;52.588;13.406;2023-06-14T08:33:08;19.80;99.90
25963;DHT22;13760;52.588;13.406;2023-06-14T08:35:33;20.00;99.90
25963;DHT22;13760;52.588;13.406;2023-06-14T08:38:02;20.20;99.90
25963;DHT22;13760;52.588;13.406;2023-06-14T08:40:30;20.40;99.90
25963;DHT22;13760;52.588;13.406;2023-06-14T08:42:55;20.60;99.90
25963;DHT22;13760;52.588;13.406;2023-06-14T08:45:22;20.70;99.90
25963;DHT22;13760;52.588;13.406;2023-06-14T08:47:48;20.80;99.90
25963;DHT22;13760;52.588;13.406;2023-06-14T08:50:20;20.60;99.90
25963;DHT22;13760;52.588;13.406;2023-06-14T08:52:48;20.50;99.90
25963;DHT22;13760;52.588;13.406;2023-06-14T08:55:18;20.50;99.90
25963;DHT22;13760;52.588;13.406;2023-06-14T08:57:46;20.30;99.90
25963;DHT22;13760;52.588;13.406;2023-06-14T09:00:12;20.30;99.90
25963;DHT22;13760;52.588;13.406;2023-06-14T09:02:39;20.00;99.90
25963;DHT22;13760;52.588;13.406;2023-06-14T09:05:12;19.70;99.90
25963;DHT22;13760;52.588;13.406;2023-06-14T09:07:44;19.60;99.90
25963;DHT22;13760;52.588;13.406;2023-06-14T09:10:12;19.50;99.90
25963;DHT22;13760;52.588;13.406;2023-06-14T09:12:38;19.60;99.90
25963;DHT22;13760;52.588;13.406;2023-06-14T09:15:05;19.70;99.90
25963;DHT22;13760;52.588;13.406;2023-06-14T09:17:38;19.70;99.90
25963;DHT22;13760;52.588;13.406;2023-06-14T09:20:04;19.80;99.90
25963;DHT22;13760;52.588;13.406;2023-06-14T09:22:39;19.90;99.90
25963;DHT22;13760;52.588;13.406;2023-06-14T09:25:05;19.90;99.90
25963;DHT22;13760;52.588;13.406;2023-06-14T09:27:31;20.00;99.90
25963;DHT22;13760;52.588;13.406;2023-06-14T09:29:57;20.10;99.90
25963;DHT22;13760;52.588;13.406;2023-06-14T09:32:23;20.10;99.90
25963;DHT22;13760;52.588;13.406;2023-06-14T09:34:49;20.00;99.90
25963;DHT22;13760;52.588;13.406;2023-06-14T09:37:28;19.80;99.90
25963;DHT22;13760;52.588;13.406;2023-06-14T09:39:55;19.90;99.90
25963;DHT22;13760;52.588;13.406;2023-06-14T09:42:20;20.10;99.90
25963;DHT22;13760;52.588;13.406;2023-06-14T09:44:51;20.20;99.90
25963;DHT22;13760;52.588;13.406;2023-06-14T09:47:16;20.40;99.90
25963;DHT22;13760;52.588;13.406;2023-06-14T09:49:42;20.50;99.90
25963;DHT22;13760;52.588;13.406;2023-06-14T09:52:21;20.40;99.90
25963;DHT22;13760;52.588;13.406;2023-06-14T09:54:48;20.40;99.90
25963;DHT22;13760;52.588;13.406;2023-06-14T09:57:23;20.40;99.90
25963;DHT22;13760;52.588;13.406;2023-06-14T09:59:53;20.40;99.90
25963;DHT22;13760;52.588;13.406;2023-06-14T10:02:25;20.40;99.90
25963;DHT22;13760;52.588;13.406;2023-06-14T10:05:03;20.50;99.90
25963;DHT22;13760;52.588;13.406;2023-06-14T10:07:35;20.50;99.90
25963;DHT22;13760;52.588;13.406;2023-06-14T10:10:01;20.50;99.90
25963;DHT22;13760;52.588;13.406;2023-06-14T10:12:27;20.50;99.90
25963;DHT22;13760;52.588;13.406;2023-06-14T10:14:53;20.60;99.90
25963;DHT22;13760;52.588;13.406;2023-06-14T10:17:37;20.70;99.90
25963;DHT22;13760;52.588;13.406;2023-06-14T10:22:39;20.70;99.90
25963;DHT22;13760;52.588;13.406;2023-06-14T10:25:13;20.70;99.90
25963;DHT22;13760;52.588;13.406;2023-06-14T10:27:51;20.80;99.90
25963;DHT22;13760;52.588;13.406;2023-06-14T10:30:16;20.70;99.90
25963;DHT22;13760;52.588;13.406;2023-06-14T10:33:04;20.80;99.90
25963;DHT22;13760;52.588;13.406;2023-06-14T10:35:31;20.90;99.90
25963;DHT22;13760;52.588;13.406;2023-06-14T10:38:07;21.00;99.90
25963;DHT22;13760;52.588;13.406;2023-06-14T10:40:33;21.20;99.90
25963;DHT22;13760;52.588;13.406;2023-06-14T10:42:59;21.40;99.90
25963;DHT22;13760;52.588;13.406;2023-06-14T10:45:25;21.50;99.50
25963;DHT22;13760;52.588;13.406;2023-06-14T10:47:50;21.40;98.90
25963;DHT22;13760;52.588;13.406;2023-06-14T10:50:27;21.30;99.60
25963;DHT22;13760;52.588;13.406;2023-06-14T10:52:53;21.40;99.50
25963;DHT22;13760;52.588;13.406;2023-06-14T10:55:21;21.40;99.10
25963;DHT22;13760;52.588;13.406;2023-06-14T10:57:52;21.40;98.60
25963;DHT22;13760;52.588;13.406;2023-06-14T11:00:28;21.50;98.10
25963;DHT22;13760;52.588;13.406;2023-06-14T11:05:49;21.60;96.90
25963;DHT22;13760;52.588;13.406;2023-06-14T11:11:10;21.90;96.30
25963;DHT22;13760;52.588;13.406;2023-06-14T11:13:39;22.10;95.60
25963;DHT22;13760;52.588;13.406;2023-06-14T11:16:14;22.10;94.40
25963;DHT22;13760;52.588;13.406;2023-06-14T11:18:40;22.30;94.40
25963;DHT22;13760;52.588;13.406;2023-06-14T11:21:06;22.60;93.40
25963;DHT22;13760;52.588;13.406;2023-06-14T11:23:32;22.50;92.60
25963;DHT22;13760;52.588;13.406;2023-06-14T11:25:57;22.60;92.30
25963;DHT22;13760;52.588;13.406;2023-06-14T11:28:23;22.90;91.90
25963;DHT22;13760;52.588;13.406;2023-06-14T11:30:59;23.00;91.20
25963;DHT22;13760;52.588;13.406;2023-06-14T11:33:24;23.00;90.40
25963;DHT22;13760;52.588;13.406;2023-06-14T11:35:51;23.00;89.40
25963;DHT22;13760;52.588;13.406;2023-06-14T11:38:16;22.90;88.90
25963;DHT22;13760;52.588;13.406;2023-06-14T11:40:42;22.70;88.10
25963;DHT22;13760;52.588;13.406;2023-06-14T11:43:07;22.60;88.00
25963;DHT22;13760;52.588;13.406;2023-06-14T11:45:33;22.70;88.70
25963;DHT22;13760;52.588;13.406;2023-06-14T11:47:59;22.70;85.30
25963;DHT22;13760;52.588;13.406;2023-06-14T11:50:25;22.70;85.10
25963;DHT22;13760;52.588;13.406;2023-06-14T11:52:55;22.60;86.90
25963;DHT22;13760;52.588;13.406;2023-06-14T11:55:22;22.50;86.80
25963;DHT22;13760;52.588;13.406;2023-06-14T11:57:47;22.40;86.50
25963;DHT22;13760;52.588;13.406;2023-06-14T12:00:13;22.50;86.10
25963;DHT22;13760;52.588;13.406;2023-06-14T12:02:41;22.80;83.00
25963;DHT22;13760;52.588;13.406;2023-06-14T12:05:07;23.00;82.70
25963;DHT22;13760;52.588;13.406;2023-06-14T12:07:37;23.20;81.70
25963;DHT22;13760;52.588;13.406;2023-06-14T12:12:28;23.30;78.90
25963;DHT22;13760;52.588;13.406;2023-06-14T12:14:57;23.60;79.50
25963;DHT22;13760;52.588;13.406;2023-06-14T12:17:22;23.80;77.80
25963;DHT22;13760;52.588;13.406;2023-06-14T12:19:49;23.90;75.70
25963;DHT22;13760;52.588;13.406;2023-06-14T12:22:16;23.90;75.90
25963;DHT22;13760;52.588;13.406;2023-06-14T12:24:45;23.80;74.20
25963;DHT22;13760;52.588;13.406;2023-06-14T12:27:12;23.70;75.80
25963;DHT22;13760;52.588;13.406;2023-06-14T12:29:40;23.70;74.00
25963;DHT22;13760;52.588;13.406;2023-06-14T12:32:06;23.70;75.00
25963;DHT22;13760;52.588;13.406;2023-06-14T12:34:32;23.70;75.30
25963;DHT22;13760;52.588;13.406;2023-06-14T12:36:58;24.00;73.90
25963;DHT22;13760;52.588;13.406;2023-06-14T12:39:23;24.20;71.90
25963;DHT22;13760;52.588;13.406;2023-06-14T12:41:50;24.20;71.20
25963;DHT22;13760;52.588;13.406;2023-06-14T12:44:15;24.30;70.70
25963;DHT22;13760;52.588;13.406;2023-06-14T12:46:42;24.50;69.50
25963;DHT22;13760;52.588;13.406;2023-06-14T12:49:09;24.70;68.60
25963;DHT22;13760;52.588;13.406;2023-06-14T12:51:35;24.90;68.10
25963;DHT22;13760;52.588;13.406;2023-06-14T12:54:00;25.10;67.10
25963;DHT22;13760;52.588;13.406;2023-06-14T12:56:26;25.40;67.20
25963;DHT22;13760;52.588;13.406;2023-06-14T12:58:52;25.50;65.30
25963;DHT22;13760;52.588;13.406;2023-06-14T13:01:18;25.70;63.90
25963;DHT22;13760;52.588;13.406;2023-06-14T13:03:48;25.90;62.00
25963;DHT22;13760;52.588;13.406;2023-06-14T13:06:15;26.00;61.00
25963;DHT22;13760;52.588;13.406;2023-06-14T13:08:40;26.00;60.80
25963;DHT22;13760;52.588;13.406;2023-06-14T13:11:06;26.00;59.40
25963;DHT22;13760;52.588;13.406;2023-06-14T13:13:31;25.80;58.80
25963;DHT22;13760;52.588;13.406;2023-06-14T13:15:57;25.60;59.40
25963;DHT22;13760;52.588;13.406;2023-06-14T13:18:22;25.50;58.70
25963;DHT22;13760;52.588;13.406;2023-06-14T13:20:48;25.30;58.40
25963;DHT22;13760;52.588;13.406;2023-06-14T13:23:15;25.40;58.60
25963;DHT22;13760;52.588;13.406;2023-06-14T13:25:40;25.40;58.50
25963;DHT22;13760;52.588;13.406;2023-06-14T13:28:06;25.50;57.70
25963;DHT22;13760;52.588;13.406;2023-06-14T13:30:33;25.50;54.40
25963;DHT22;13760;52.588;13.406;2023-06-14T13:32:59;25.60;55.30
25963;DHT22;13760;52.588;13.406;2023-06-14T13:35:25;25.70;54.10
25963;DHT22;13760;52.588;13.406;2023-06-14T13:37:51;25.90;53.60
25963;DHT22;13760;52.588;13.406;2023-06-14T13:40:17;25.80;53.00
25963;DHT22;13760;52.588;13.406;2023-06-14T13:42:42;26.00;53.50
25963;DHT22;13760;52.588;13.406;2023-06-14T13:45:09;26.30;53.80
25963;DHT22;13760;52.588;13.406;2023-06-14T13:47:35;26.40;53.60
25963;DHT22;13760;52.588;13.406;2023-06-14T13:50:01;26.50;51.30
25963;DHT22;13760;52.588;13.406;2023-06-14T13:52:26;26.50;51.70
25963;DHT22;13760;52.588;13.406;2023-06-14T13:54:52;26.40;51.70
25963;DHT22;13760;52.588;13.406;2023-06-14T13:57:18;26.10;51.60
25963;DHT22;13760;52.588;13.406;2023-06-14T13:59:44;26.00;52.00
25963;DHT22;13760;52.588;13.406;2023-06-14T14:02:13;25.80;52.40
25963;DHT22;13760;52.588;13.406;2023-06-14T14:04:40;25.40;52.40
25963;DHT22;13760;52.588;13.406;2023-06-14T14:07:06;25.30;52.30
25963;DHT22;13760;52.588;13.406;2023-06-14T14:09:33;24.90;53.50
25963;DHT22;13760;52.588;13.406;2023-06-14T14:11:59;24.70;56.10
25963;DHT22;13760;52.588;13.406;2023-06-14T14:14:26;24.20;58.10
25963;DHT22;13760;52.588;13.406;2023-06-14T14:16:52;24.00;59.70
25963;DHT22;13760;52.588;13.406;2023-06-14T14:19:25;23.80;60.40
25963;DHT22;13760;52.588;13.406;2023-06-14T14:21:51;23.70;60.90
25963;DHT22;13760;52.588;13.406;2023-06-14T14:24:18;23.60;60.80
25963;DHT22;13760;52.588;13.406;2023-06-14T14:26:44;23.60;62.00
25963;DHT22;13760;52.588;13.406;2023-06-14T14:29:12;23.60;62.30
25963;DHT22;13760;52.588;13.406;2023-06-14T14:31:38;23.90;62.10
25963;DHT22;13760;52.588;13.406;2023-06-14T14:34:03;23.90;61.30
25963;DHT22;13760;52.588;13.406;2023-06-14T14:36:29;23.80;61.80
25963;DHT22;13760;52.588;13.406;2023-06-14T14:38:55;23.70;62.30
25963;DHT22;13760;52.588;13.406;2023-06-14T14:41:20;23.60;62.80
25963;DHT22;13760;52.588;13.406;2023-06-14T14:43:46;23.50;63.20
25963;DHT22;13760;52.588;13.406;2023-06-14T14:46:12;23.40;62.90
25963;DHT22;13760;52.588;13.406;2023-06-14T14:48:37;23.20;63.40
25963;DHT22;13760;52.588;13.406;2023-06-14T14:51:03;23.20;63.60
25963;DHT22;13760;52.588;13.406;2023-06-14T14:53:28;23.20;63.60
25963;DHT22;13760;52.588;13.406;2023-06-14T14:55:54;23.20;64.20
25963;DHT22;13760;52.588;13.406;2023-06-14T14:58:20;23.00;64.00
25963;DHT22;13760;52.588;13.406;2023-06-14T15:00:46;23.00;64.50
25963;DHT22;13760;52.588;13.406;2023-06-14T15:03:12;22.90;65.00
25963;DHT22;13760;52.588;13.406;2023-06-14T15:05:37;22.80;65.00
25963;DHT22;13760;52.588;13.406;2023-06-14T15:08:03;22.70;65.30
25963;DHT22;13760;52.588;13.406;2023-06-14T15:10:30;22.70;65.30
25963;DHT22;13760;52.588;13.406;2023-06-14T15:12:56;22.70;65.20
25963;DHT22;13760;52.588;13.406;2023-06-14T15:15:22;22.60;65.40
25963;DHT22;13760;52.588;13.406;2023-06-14T15:17:48;22.60;65.70
25963;DHT22;13760;52.588;13.406;2023-06-14T15:20:13;22.60;65.90
25963;DHT22;13760;52.588;13.406;2023-06-14T15:22:40;22.50;65.50
25963;DHT22;13760;52.588;13.406;2023-06-14T15:25:05;22.50;66.00
25963;DHT22;13760;52.588;13.406;2023-06-14T15:27:31;22.40;66.30
25963;DHT22;13760;52.588;13.406;2023-06-14T15:29:57;22.40;66.00